createdAt,value
2019-02-07T00:00:40.000Z,61.88
2019-02-07T00:03:08.961Z,63.41
2019-02-07T00:05:37.597Z,64.11
2019-02-07T00:08:06.524Z,62.84
2019-02-07T00:10:35.139Z,62.08
2019-02-07T00:13:04.102Z,63.40
2019-02-07T00:18:11.255Z,63.05
2019-02-07T00:20:39.887Z,63.17
2019-02-07T00:23:08.541Z,62.93
2019-02-07T00:25:37.163Z,63.93
2019-02-07T00:28:05.800Z,63.86
2019-02-07T00:30:34.440Z,64.21
2019-02-07T00:33:03.253Z,64.13
2019-02-07T00:38:10.699Z,64.57
2019-02-07T00:40:39.693Z,65.44
2019-02-07T00:43:08.321Z,65.47
2019-02-07T00:45:37.267Z,65.00
2019-02-07T00:48:06.159Z,65.47
2019-02-07T00:50:34.777Z,65.25
2019-02-07T00:53:03.418Z,64.90
2019-02-07T00:58:10.968Z,66.94
2019-02-07T01:00:39.591Z,67.69
2019-02-07T01:03:08.237Z,67.00
2019-02-07T01:05:36.855Z,65.19
2019-02-07T01:08:05.493Z,65.08
2019-02-07T01:10:34.109Z,65.78
2019-02-07T01:13:02.981Z,66.24
2019-02-07T01:18:10.154Z,64.70
2019-02-07T01:20:38.787Z,63.47
2019-02-07T01:23:07.423Z,63.83
2019-02-07T01:25:36.057Z,63.71
2019-02-07T01:28:04.690Z,63.69
2019-02-07T01:33:11.865Z,63.54
2019-02-07T01:35:40.491Z,62.61
2019-02-07T01:38:09.114Z,62.84
2019-02-07T01:40:37.750Z,62.70
2019-02-07T01:43:06.373Z,62.87
2019-02-07T01:45:35.274Z,63.99
2019-02-07T01:48:04.277Z,64.96
2019-02-07T01:53:12.103Z,64.99
2019-02-07T01:55:40.727Z,66.01
2019-02-07T01:58:09.385Z,66.89
2019-02-07T02:00:38.027Z,67.71
2019-02-07T02:03:07.015Z,67.81
2019-02-07T02:05:36.000Z,68.34
2019-02-07T02:08:04.631Z,68.82
2019-02-07T02:10:33.263Z,68.83
2019-02-07T02:13:01.885Z,68.85
2019-02-07T02:18:09.413Z,69.21
2019-02-07T02:20:38.045Z,69.36
2019-02-07T02:23:06.692Z,69.30
2019-02-07T02:25:35.569Z,69.75
2019-02-07T02:28:04.509Z,70.04
2019-02-07T02:30:33.144Z,69.25
2019-02-07T02:33:01.784Z,69.95
2019-02-07T02:38:09.280Z,69.95
2019-02-07T02:40:37.911Z,70.12
2019-02-07T02:43:06.590Z,70.52
2019-02-07T02:45:37.837Z,71.25
2019-02-07T02:48:04.524Z,71.17
2019-02-07T02:50:33.526Z,71.52
2019-02-07T02:53:02.144Z,71.46
2019-02-07T02:55:31.091Z,71.38
2019-02-07T02:57:59.725Z,71.29
2019-02-07T03:00:28.365Z,71.44
2019-02-07T03:02:57.347Z,71.87
2019-02-07T03:05:26.351Z,71.36
2019-02-07T03:07:54.959Z,71.07
2019-02-07T03:10:23.733Z,71.27
2019-02-07T03:12:52.233Z,71.85
2019-02-07T03:15:20.867Z,72.17
2019-02-07T03:17:49.851Z,71.90
2019-02-07T03:20:18.485Z,72.26
2019-02-07T03:22:47.125Z,72.02
2019-02-07T03:25:15.783Z,72.10
2019-02-07T03:27:44.697Z,71.35
2019-02-07T03:30:13.357Z,71.20
2019-02-07T03:32:42.273Z,71.52
2019-02-07T03:35:11.259Z,71.28
2019-02-07T03:37:39.905Z,71.28
2019-02-07T03:40:08.530Z,70.96
2019-02-07T03:42:37.517Z,70.19
2019-02-07T03:45:06.159Z,70.39
2019-02-07T03:47:34.839Z,69.93
2019-02-07T03:50:03.449Z,70.52
2019-02-07T03:52:32.107Z,70.45
2019-02-07T03:55:01.041Z,70.87
2019-02-07T03:57:30.029Z,71.04
2019-02-07T03:59:59.009Z,71.76
2019-02-07T04:02:27.656Z,69.78
2019-02-07T04:04:56.606Z,68.95
2019-02-07T04:07:25.237Z,67.05
2019-02-07T04:09:54.164Z,68.46
2019-02-07T04:12:22.835Z,69.27
2019-02-07T04:14:51.785Z,70.03
2019-02-07T04:17:20.733Z,69.60
2019-02-07T04:19:49.724Z,69.10
2019-02-07T04:22:18.376Z,69.59
2019-02-07T04:24:47.301Z,69.05
2019-02-07T04:27:15.938Z,68.36
2019-02-07T04:29:44.568Z,68.47
2019-02-07T04:32:13.210Z,67.53
2019-02-07T04:34:42.130Z,66.39
2019-02-07T04:37:10.763Z,65.46
2019-02-07T04:39:39.382Z,64.89
2019-02-07T04:42:08.041Z,63.10
2019-02-07T04:44:36.685Z,57.34
2019-02-07T04:47:05.671Z,53.96
2019-02-07T04:49:34.310Z,52.64
2019-02-07T04:52:02.954Z,51.00
2019-02-07T04:54:31.566Z,49.71
2019-02-07T04:57:00.235Z,48.22
2019-02-07T04:59:29.173Z,47.17
2019-02-07T05:01:58.077Z,46.29
2019-02-07T05:04:27.058Z,46.33
2019-02-07T05:06:55.693Z,44.53
2019-02-07T05:09:24.803Z,44.70
2019-02-07T05:11:53.405Z,44.27
2019-02-07T05:14:22.034Z,44.59
2019-02-07T05:16:50.681Z,44.06
2019-02-07T05:19:19.302Z,44.48
2019-02-07T05:21:48.247Z,43.97
2019-02-07T05:24:16.934Z,44.81
2019-02-07T05:26:45.571Z,43.53
2019-02-07T05:29:14.500Z,43.08
2019-02-07T05:31:43.150Z,42.87
2019-02-07T05:34:12.077Z,42.99
2019-02-07T05:36:42.335Z,43.00
2019-02-07T05:39:09.697Z,42.27
2019-02-07T05:41:38.641Z,40.93
2019-02-07T05:44:07.286Z,41.83
2019-02-07T05:46:35.916Z,42.29
2019-02-07T05:49:04.563Z,42.38
2019-02-07T05:51:33.199Z,41.54
2019-02-07T05:54:01.834Z,42.61
2019-02-07T05:56:30.468Z,41.92
2019-02-07T05:58:59.477Z,42.26
2019-02-07T06:01:28.010Z,42.26
2019-02-07T06:03:56.650Z,42.47
2019-02-07T06:06:25.274Z,43.00
2019-02-07T06:08:53.905Z,43.67
2019-02-07T06:11:22.549Z,45.12
2019-02-07T06:13:51.185Z,45.08
2019-02-07T06:16:19.816Z,45.96
2019-02-07T06:18:48.467Z,46.54
2019-02-07T06:21:17.374Z,47.21
2019-02-07T06:26:25.446Z,47.80
2019-02-07T06:28:53.930Z,47.86
2019-02-07T06:31:22.570Z,48.08
2019-02-07T06:33:51.203Z,51.76
2019-02-07T06:36:19.827Z,54.39
2019-02-07T06:38:48.483Z,56.52
2019-02-07T06:41:17.397Z,57.17
2019-02-07T06:46:24.668Z,57.91
2019-02-07T06:48:53.251Z,58.91
2019-02-07T06:51:22.268Z,59.93
2019-02-07T06:53:51.284Z,61.01
2019-02-07T06:56:19.905Z,62.23
2019-02-07T06:58:49.156Z,62.30
2019-02-07T07:01:17.779Z,62.65
2019-02-07T07:03:46.424Z,63.07
2019-02-07T07:06:15.394Z,63.63
2019-02-07T07:11:22.584Z,64.56
2019-02-07T07:13:51.587Z,64.01
2019-02-07T07:16:20.210Z,63.86
2019-02-07T07:18:49.161Z,63.80
2019-02-07T07:21:17.779Z,63.72
2019-02-07T07:26:25.402Z,62.60
2019-02-07T07:28:54.033Z,62.71
2019-02-07T07:31:22.644Z,62.50
2019-02-07T07:33:51.272Z,62.19
2019-02-07T07:36:19.904Z,61.83
2019-02-07T07:38:48.872Z,61.88
2019-02-07T07:41:17.519Z,61.33
2019-02-07T07:46:24.778Z,60.15
2019-02-07T07:48:53.397Z,59.17
2019-02-07T07:51:22.026Z,59.30
2019-02-07T07:53:50.646Z,59.45
2019-02-07T07:56:19.580Z,59.72
2019-02-07T07:58:48.246Z,59.56
2019-02-07T08:01:17.262Z,60.02
2019-02-07T08:06:24.371Z,60.66
2019-02-07T08:08:53.009Z,59.21
2019-02-07T08:11:21.936Z,58.84
2019-02-07T08:13:50.919Z,59.72
2019-02-07T08:16:19.800Z,61.23
2019-02-07T08:18:48.463Z,61.94
2019-02-07T08:21:17.391Z,62.27
2019-02-07T08:23:46.031Z,61.13
2019-02-07T08:26:14.662Z,61.17
2019-02-07T08:31:22.200Z,63.02
2019-02-07T08:33:50.845Z,63.19
2019-02-07T08:36:19.831Z,64.21
2019-02-07T08:38:49.954Z,64.59
2019-02-07T08:41:17.089Z,64.83
2019-02-07T08:46:24.629Z,65.52
2019-02-07T08:48:53.266Z,65.75
2019-02-07T08:51:22.175Z,66.31
2019-02-07T08:53:51.169Z,66.73
2019-02-07T08:56:20.152Z,66.03
2019-02-07T08:58:49.149Z,65.24
2019-02-07T09:01:18.139Z,60.28
2019-02-07T09:03:46.788Z,56.93
2019-02-07T09:06:15.713Z,56.26
2019-02-07T09:08:44.705Z,55.72
2019-02-07T09:11:13.684Z,54.40
2019-02-07T09:13:42.607Z,54.21
2019-02-07T09:16:11.227Z,54.59
2019-02-07T09:21:18.415Z,52.79
2019-02-07T09:26:25.635Z,52.23
2019-02-07T09:28:54.655Z,52.65
2019-02-07T09:31:23.283Z,51.95
2019-02-07T09:33:51.914Z,51.78
2019-02-07T09:36:20.558Z,51.74
2019-02-07T09:38:49.495Z,51.96
2019-02-07T09:41:18.126Z,51.73
2019-02-07T09:46:26.880Z,51.36
2019-02-07T09:48:55.911Z,51.33
2019-02-07T09:51:24.897Z,50.22
2019-02-07T09:53:53.525Z,50.54
2019-02-07T09:56:22.486Z,50.45
2019-02-07T09:58:51.465Z,49.74
2019-02-07T10:01:20.098Z,49.25
2019-02-07T10:03:48.744Z,48.78
2019-02-07T10:06:17.708Z,49.22
2019-02-07T10:08:46.701Z,48.54
2019-02-07T10:11:15.333Z,48.03
2019-02-07T10:16:22.826Z,48.14
2019-02-07T10:18:51.449Z,48.83
2019-02-07T10:21:20.466Z,48.32
2019-02-07T10:23:49.438Z,49.10
2019-02-07T10:26:17.996Z,49.11
2019-02-07T10:31:25.285Z,49.31
2019-02-07T10:33:53.913Z,49.38
2019-02-07T10:36:22.909Z,50.31
2019-02-07T10:38:51.521Z,51.50
2019-02-07T10:41:20.159Z,51.87
2019-02-07T10:43:49.167Z,51.88
2019-02-07T10:46:17.899Z,53.22
2019-02-07T10:51:25.363Z,56.44
2019-02-07T10:53:53.988Z,56.75
2019-02-07T10:56:22.969Z,57.79
2019-02-07T10:58:51.589Z,57.67
2019-02-07T11:01:20.224Z,56.98
2019-02-07T11:03:49.185Z,56.51
2019-02-07T11:06:17.834Z,55.22
2019-02-07T11:11:25.076Z,54.92
2019-02-07T11:13:53.701Z,55.18
2019-02-07T11:16:22.333Z,56.69
2019-02-07T11:18:55.516Z,57.51
2019-02-07T11:21:19.897Z,57.59
2019-02-07T11:23:48.895Z,59.22
2019-02-07T11:26:17.540Z,57.90
2019-02-07T11:31:25.089Z,58.02
2019-02-07T11:33:53.733Z,56.58
2019-02-07T11:36:22.359Z,53.88
2019-02-07T11:38:50.981Z,55.86
2019-02-07T11:41:19.916Z,57.31
2019-02-07T11:43:48.910Z,57.88
2019-02-07T11:46:17.551Z,58.20
2019-02-07T11:51:24.804Z,58.26
2019-02-07T11:53:53.431Z,59.82
2019-02-07T11:56:22.080Z,60.10
2019-02-07T11:58:50.729Z,60.91
2019-02-07T12:01:19.765Z,60.90
2019-02-07T12:03:48.730Z,61.28
2019-02-07T12:06:17.400Z,61.71
2019-02-07T12:08:46.045Z,62.18
2019-02-07T12:11:14.990Z,61.85
2019-02-07T12:13:43.604Z,62.62
2019-02-07T12:16:12.567Z,64.38
2019-02-07T12:18:41.547Z,64.89
2019-02-07T12:21:10.182Z,64.86
2019-02-07T12:26:17.740Z,63.81
2019-02-07T12:28:46.431Z,63.81
2019-02-07T12:31:15.062Z,64.09
2019-02-07T12:33:43.695Z,64.80
2019-02-07T12:36:12.364Z,65.89
2019-02-07T12:38:40.988Z,69.25
2019-02-07T12:41:09.942Z,71.32
2019-02-07T12:43:38.564Z,70.80
2019-02-07T12:46:07.517Z,71.64
2019-02-07T12:48:36.408Z,72.06
2019-02-07T12:51:05.062Z,72.04
2019-02-07T12:53:33.707Z,72.15
2019-02-07T12:56:02.339Z,72.25
2019-02-07T12:58:30.986Z,72.12
2019-02-07T13:00:59.642Z,71.68
2019-02-07T13:03:28.611Z,71.68
2019-02-07T13:05:57.596Z,71.59
2019-02-07T13:08:26.245Z,71.35
2019-02-07T13:10:55.181Z,71.58
2019-02-07T13:13:23.841Z,71.58
2019-02-07T13:15:52.470Z,71.36
2019-02-07T13:18:21.400Z,70.77
2019-02-07T13:20:50.322Z,70.89
2019-02-07T13:23:18.952Z,70.98
2019-02-07T13:25:47.656Z,70.90
2019-02-07T13:28:16.275Z,70.68
2019-02-07T13:30:45.287Z,70.77
2019-02-07T13:33:14.267Z,71.54
2019-02-07T13:35:42.880Z,71.12
2019-02-07T13:38:11.830Z,71.80
2019-02-07T13:40:40.438Z,71.80
2019-02-07T13:43:09.078Z,71.76
2019-02-07T13:45:37.695Z,71.29
2019-02-07T13:48:06.334Z,70.70
2019-02-07T13:50:34.975Z,70.70
2019-02-07T13:53:03.929Z,70.95
2019-02-07T13:55:32.919Z,70.61
2019-02-07T13:58:01.568Z,70.61
2019-02-07T14:00:30.494Z,71.52
2019-02-07T14:02:59.122Z,71.57
2019-02-07T14:05:27.757Z,71.87
2019-02-07T14:07:56.741Z,71.95
2019-02-07T14:10:25.867Z,72.00
2019-02-07T14:12:54.829Z,72.06
2019-02-07T14:15:23.826Z,72.20
2019-02-07T14:17:52.813Z,72.14
2019-02-07T14:20:21.448Z,72.06
2019-02-07T14:22:50.209Z,72.19
2019-02-07T14:25:19.176Z,72.06
2019-02-07T14:27:48.170Z,72.52
2019-02-07T14:30:17.154Z,72.38
2019-02-07T14:32:45.797Z,72.46
2019-02-07T14:35:14.444Z,72.48
2019-02-07T14:37:43.093Z,72.48
2019-02-07T14:40:11.716Z,72.66
2019-02-07T14:42:40.359Z,72.30
2019-02-07T14:45:09.000Z,72.80
2019-02-07T14:47:37.945Z,72.74
2019-02-07T14:50:14.587Z,73.03
2019-02-07T14:52:35.516Z,73.36
2019-02-07T14:55:04.501Z,73.40
2019-02-07T14:57:33.508Z,73.97
2019-02-07T15:00:02.416Z,73.69
2019-02-07T15:02:31.068Z,74.25
2019-02-07T15:04:59.959Z,73.98
2019-02-07T15:07:28.607Z,74.05
2019-02-07T15:09:57.521Z,74.24
2019-02-07T15:12:26.153Z,74.07
2019-02-07T15:14:54.786Z,73.91
2019-02-07T15:17:23.427Z,74.23
2019-02-07T15:19:52.061Z,74.17
2019-02-07T15:22:20.708Z,74.36
2019-02-07T15:24:49.356Z,74.45
2019-02-07T15:27:17.989Z,74.40
2019-02-07T15:29:46.625Z,74.07
2019-02-07T15:32:15.260Z,74.87
2019-02-07T15:34:43.988Z,74.84
2019-02-07T15:37:12.626Z,75.20
2019-02-07T15:39:41.249Z,75.49
2019-02-07T15:42:10.220Z,75.42
2019-02-07T15:44:38.853Z,74.75
2019-02-07T15:47:08.874Z,74.98
2019-02-07T15:49:36.137Z,75.09
2019-02-07T15:52:04.779Z,75.54
2019-02-07T15:54:33.393Z,75.28
2019-02-07T15:57:02.322Z,75.16
2019-02-07T15:59:30.930Z,75.48
2019-02-07T16:01:59.555Z,75.50
2019-02-07T16:04:28.199Z,75.39
2019-02-07T16:06:56.832Z,76.15
2019-02-07T16:09:25.572Z,76.32
2019-02-07T16:11:54.199Z,76.08
2019-02-07T16:14:23.104Z,76.27
2019-02-07T16:16:51.730Z,76.37
2019-02-07T16:19:20.363Z,76.50
2019-02-07T16:21:49.368Z,76.48
2019-02-07T16:24:18.026Z,76.58
2019-02-07T16:26:46.934Z,76.69
2019-02-07T16:29:15.585Z,76.70
2019-02-07T16:31:44.194Z,76.92
2019-02-07T16:34:13.186Z,76.67
2019-02-07T16:36:41.817Z,76.85
2019-02-07T16:39:10.769Z,76.72
2019-02-07T16:41:39.380Z,76.46
2019-02-07T16:44:08.022Z,76.49
2019-02-07T16:46:37.028Z,77.25
2019-02-07T16:49:05.695Z,77.55
2019-02-07T16:51:34.293Z,77.03
2019-02-07T16:54:02.925Z,77.09
2019-02-07T16:56:31.829Z,77.33
2019-02-07T16:59:00.749Z,77.09
2019-02-07T17:01:29.739Z,77.14
2019-02-07T17:03:58.732Z,76.84
2019-02-07T17:06:27.725Z,77.40
2019-02-07T17:08:56.369Z,77.25
2019-02-07T17:11:25.010Z,77.25
2019-02-07T17:13:53.648Z,77.21
2019-02-07T17:16:22.296Z,77.56
2019-02-07T17:18:50.920Z,77.14
2019-02-07T17:21:19.563Z,77.03
2019-02-07T17:26:26.776Z,77.18
2019-02-07T17:28:55.425Z,76.68
2019-02-07T17:31:24.051Z,76.53
2019-02-07T17:33:52.669Z,77.39
2019-02-07T17:36:21.555Z,77.32
2019-02-07T17:38:50.192Z,77.82
2019-02-07T17:41:19.135Z,78.02
2019-02-07T17:43:47.780Z,77.83
2019-02-07T17:46:16.425Z,77.99
2019-02-07T17:48:45.390Z,78.29
2019-02-07T17:51:22.911Z,77.68
2019-02-07T17:53:43.368Z,77.87
2019-02-07T17:56:12.361Z,78.26
2019-02-07T17:58:40.997Z,78.28
2019-02-07T18:01:09.631Z,78.60
2019-02-07T18:03:38.259Z,78.36
2019-02-07T18:06:06.893Z,78.85
2019-02-07T18:08:35.525Z,79.57
2019-02-07T18:11:04.468Z,79.95
2019-02-07T18:13:33.111Z,79.82
2019-02-07T18:16:02.098Z,79.72
2019-02-07T18:18:30.741Z,80.36
2019-02-07T18:20:59.373Z,79.64
2019-02-07T18:23:28.011Z,79.39
2019-02-07T18:25:56.663Z,79.49
2019-02-07T18:28:25.329Z,79.63
2019-02-07T18:30:53.974Z,79.26
2019-02-07T18:33:22.650Z,79.40
2019-02-07T18:35:51.284Z,79.36
2019-02-07T18:38:19.936Z,79.41
2019-02-07T18:40:48.900Z,79.22
2019-02-07T18:43:17.538Z,78.96
2019-02-07T18:45:46.166Z,78.87
2019-02-07T18:48:14.801Z,79.17
2019-02-07T18:50:43.438Z,78.98
2019-02-07T18:53:12.404Z,78.58
2019-02-07T18:55:41.402Z,78.65
2019-02-07T18:58:10.078Z,78.98
2019-02-07T19:00:39.069Z,79.41
2019-02-07T19:03:07.694Z,79.15
2019-02-07T19:05:36.341Z,79.23
2019-02-07T19:08:04.961Z,79.31
2019-02-07T19:10:33.665Z,79.09
2019-02-07T19:13:02.585Z,79.39
2019-02-07T19:18:09.416Z,79.42
2019-02-07T19:20:38.062Z,79.55
2019-02-07T19:23:06.721Z,79.79
2019-02-07T19:25:35.366Z,79.84
2019-02-07T19:28:04.311Z,79.78
2019-02-07T19:30:33.306Z,79.61
2019-02-07T19:33:01.940Z,79.46
2019-02-07T19:35:30.886Z,79.60
2019-02-07T19:37:59.516Z,79.89
2019-02-07T19:40:28.156Z,79.91
2019-02-07T19:42:57.034Z,79.69
2019-02-07T19:45:26.779Z,79.69
2019-02-07T19:47:55.404Z,79.71
2019-02-07T19:50:27.044Z,79.77
2019-02-07T19:52:55.678Z,79.66
2019-02-07T19:55:30.451Z,79.76
2019-02-07T19:57:59.072Z,80.00
2019-02-07T20:00:30.431Z,80.14
2019-02-07T20:02:59.405Z,80.48
2019-02-07T20:05:28.115Z,80.26
2019-02-07T20:07:56.723Z,80.46
2019-02-07T20:10:25.382Z,80.18
2019-02-07T20:12:54.350Z,79.70
2019-02-07T20:15:29.435Z,79.80
2019-02-07T20:18:00.031Z,79.75
2019-02-07T20:20:26.700Z,80.00
2019-02-07T20:22:55.340Z,80.01
2019-02-07T20:25:23.991Z,79.74
2019-02-07T20:27:52.637Z,79.71
2019-02-07T20:30:30.701Z,79.97
2019-02-07T20:32:59.354Z,80.00
2019-02-07T20:35:27.993Z,80.11
2019-02-07T20:37:56.629Z,79.95
2019-02-07T20:40:25.315Z,79.68
2019-02-07T20:42:54.221Z,79.56
2019-02-07T20:45:22.864Z,80.02
2019-02-07T20:47:51.792Z,80.10
2019-02-07T20:50:20.783Z,80.08
2019-02-07T20:52:49.418Z,80.37
2019-02-07T20:55:18.041Z,80.42
2019-02-07T20:57:46.684Z,80.17
2019-02-07T21:00:21.456Z,80.26
2019-02-07T21:02:50.105Z,80.65
2019-02-07T21:05:18.743Z,80.79
2019-02-07T21:07:47.387Z,81.20
2019-02-07T21:12:54.377Z,81.05
2019-02-07T21:15:23.029Z,81.21
2019-02-07T21:17:51.668Z,81.21
2019-02-07T21:20:23.019Z,81.40
2019-02-07T21:22:52.004Z,81.24
2019-02-07T21:28:10.894Z,81.63
2019-02-07T21:30:39.540Z,82.00
2019-02-07T21:33:08.168Z,81.71
2019-02-07T21:35:36.791Z,81.68
2019-02-07T21:38:05.447Z,81.60
2019-02-07T21:40:34.399Z,81.78
2019-02-07T21:43:03.036Z,81.67
2019-02-07T21:45:31.673Z,82.02
2019-02-07T21:48:00.314Z,81.86
2019-02-07T21:50:28.956Z,81.98
2019-02-07T21:52:57.842Z,81.93
2019-02-07T21:55:26.487Z,81.90
2019-02-07T21:57:55.334Z,82.17
2019-02-07T22:00:26.748Z,82.09
2019-02-07T22:02:55.729Z,82.19
2019-02-07T22:05:24.360Z,82.30
2019-02-07T22:07:53.002Z,82.34
2019-02-07T22:10:21.980Z,82.37
2019-02-07T22:12:50.619Z,82.65
2019-02-07T22:15:19.252Z,82.49
2019-02-07T22:17:47.897Z,82.77
2019-02-07T22:22:55.155Z,82.96
2019-02-07T22:25:23.771Z,83.06
2019-02-07T22:27:52.716Z,83.35
2019-02-07T22:33:00.622Z,83.55
2019-02-07T22:35:29.263Z,83.32
2019-02-07T22:37:57.911Z,83.25
2019-02-07T22:40:26.876Z,83.25
2019-02-07T22:42:55.504Z,83.34
2019-02-07T22:48:02.706Z,83.42
2019-02-07T22:50:31.345Z,83.29
2019-02-07T22:52:59.996Z,83.36
2019-02-07T22:55:28.659Z,83.37
2019-02-07T22:57:57.295Z,83.50
2019-02-07T23:00:29.186Z,83.41
2019-02-07T23:02:58.146Z,83.21
2019-02-07T23:05:26.775Z,83.29
2019-02-07T23:07:55.444Z,83.32
2019-02-07T23:13:02.950Z,83.45
2019-02-07T23:15:31.530Z,83.38
2019-02-07T23:18:00.480Z,83.76
2019-02-07T23:20:29.461Z,83.56
2019-02-07T23:23:05.083Z,83.78
2019-02-07T23:25:26.747Z,83.62
2019-02-07T23:27:55.391Z,83.56
2019-02-07T23:30:24.027Z,83.73
2019-02-07T23:32:52.993Z,83.86
2019-02-07T23:35:21.628Z,83.69
2019-02-07T23:37:50.269Z,83.79
2019-02-07T23:40:18.909Z,83.94
2019-02-07T23:42:47.539Z,83.91
2019-02-07T23:45:16.177Z,84.10
2019-02-07T23:47:44.818Z,83.69
2019-02-07T23:50:13.464Z,83.90
2019-02-07T23:52:42.107Z,83.90
2019-02-07T23:55:10.771Z,83.70
2019-02-07T23:57:39.383Z,83.63
